createdAt,value
2022-12-04T00:01:14.366Z,-0.17
2022-12-04T00:03:42.381Z,-0.18
2022-12-04T00:06:12.553Z,-0.16
2022-12-04T00:08:42.680Z,-0.11
2022-12-04T00:11:12.042Z,-0.19
2022-12-04T00:13:40.188Z,-0.16
2022-12-04T00:16:09.226Z,-0.08
2022-12-04T00:18:37.115Z,-0.12
2022-12-04T00:21:06.214Z,0.04
2022-12-04T00:23:35.036Z,0.01
2022-12-04T00:26:05.758Z,-0.01
2022-12-04T00:28:33.745Z,-0.01
2022-12-04T00:31:01.619Z,-0.02
2022-12-04T00:33:29.490Z,0.15
2022-12-04T00:36:00.476Z,-0.04
2022-12-04T00:38:28.723Z,0.09
2022-12-04T00:40:56.870Z,0.06
2022-12-04T00:43:26.051Z,-0.02
2022-12-04T00:45:53.998Z,0.11
2022-12-04T00:48:21.998Z,0.12
2022-12-04T00:50:50.049Z,0.02
2022-12-04T00:53:18.553Z,-0.02
2022-12-04T00:55:46.592Z,0.04
2022-12-04T00:58:14.633Z,0.04
2022-12-04T01:00:44.088Z,0.11
2022-12-04T01:03:12.290Z,0.03
2022-12-04T01:05:41.310Z,0.05
2022-12-04T01:08:10.069Z,0.13
2022-12-04T01:10:39.355Z,-0.03
2022-12-04T01:13:07.293Z,-0.03
2022-12-04T01:15:35.209Z,0.09
2022-12-04T01:18:04.517Z,0.05
2022-12-04T01:20:33.109Z,0.05
2022-12-04T01:23:00.991Z,0.03
2022-12-04T01:25:28.861Z,0.01
2022-12-04T01:27:56.741Z,0.04
2022-12-04T01:30:24.660Z,0.07
2022-12-04T01:32:53.986Z,0.10
2022-12-04T01:35:23.200Z,0.17
2022-12-04T01:37:51.032Z,0.03
2022-12-04T01:40:18.892Z,0.15
2022-12-04T01:42:46.742Z,0.07
2022-12-04T01:45:39.573Z,0.26
2022-12-04T01:48:14.746Z,0.14
2022-12-04T01:50:45.378Z,0.14
2022-12-04T01:53:13.862Z,0.09
2022-12-04T01:55:41.942Z,0.19
2022-12-04T01:58:10.424Z,0.20
2022-12-04T02:00:38.305Z,0.17
2022-12-04T02:03:06.230Z,0.22
2022-12-04T02:05:34.102Z,0.19
2022-12-04T02:08:05.833Z,0.16
2022-12-04T02:10:40.286Z,0.13
2022-12-04T02:13:13.352Z,0.19
2022-12-04T02:15:46.091Z,0.21
2022-12-04T02:18:20.066Z,0.16
2022-12-04T02:20:53.280Z,0.17
2022-12-04T02:23:32.100Z,0.41
2022-12-04T02:26:05.505Z,0.20
2022-12-04T02:28:38.415Z,0.24
2022-12-04T02:31:06.272Z,0.20
2022-12-04T02:33:38.662Z,0.25
2022-12-04T02:36:08.924Z,0.27
2022-12-04T02:38:38.943Z,0.29
2022-12-04T02:41:11.926Z,0.25
2022-12-04T02:43:41.435Z,0.32
2022-12-04T02:46:12.918Z,0.24
2022-12-04T02:48:43.044Z,0.25
2022-12-04T02:51:13.652Z,0.22
2022-12-04T02:53:43.954Z,0.26
2022-12-04T02:56:13.852Z,0.24
2022-12-04T02:58:46.421Z,0.23
2022-12-04T03:01:23.914Z,0.27
2022-12-04T03:03:54.377Z,0.39
2022-12-04T03:06:23.445Z,0.31
2022-12-04T03:08:57.123Z,0.35
2022-12-04T03:11:26.068Z,0.30
2022-12-04T03:13:58.369Z,0.30
2022-12-04T03:16:30.322Z,0.32
2022-12-04T03:19:01.159Z,0.38
2022-12-04T03:21:32.187Z,0.17
2022-12-04T03:24:04.415Z,0.23
2022-12-04T03:26:35.925Z,0.18
2022-12-04T03:29:09.181Z,0.37
2022-12-04T03:31:41.807Z,0.39
2022-12-04T03:34:11.145Z,0.33
2022-12-04T03:36:42.481Z,0.23
2022-12-04T03:39:20.093Z,0.26
2022-12-04T03:41:55.941Z,0.26
2022-12-04T03:44:27.775Z,0.26
2022-12-04T03:46:58.418Z,0.21
2022-12-04T03:49:30.508Z,0.19
2022-12-04T03:52:00.673Z,0.24
2022-12-04T03:54:31.473Z,0.31
2022-12-04T03:57:02.187Z,0.36
2022-12-04T03:59:36.463Z,0.41
2022-12-04T04:02:06.138Z,0.34
2022-12-04T04:04:36.797Z,0.33
2022-12-04T04:07:45.482Z,0.34
2022-12-04T04:10:15.844Z,0.31
2022-12-04T04:12:45.870Z,0.34
2022-12-04T04:15:34.478Z,0.39
2022-12-04T04:18:21.096Z,0.36
2022-12-04T04:21:08.944Z,0.37
2022-12-04T04:23:57.766Z,0.57
2022-12-04T04:26:27.906Z,0.47
2022-12-04T04:28:55.824Z,0.37
2022-12-04T04:31:30.833Z,0.57
2022-12-04T04:34:05.357Z,0.56
2022-12-04T04:36:38.710Z,0.58
2022-12-04T04:39:12.483Z,0.64
2022-12-04T04:41:43.470Z,0.59
2022-12-04T04:44:19.965Z,0.61
2022-12-04T04:46:52.738Z,0.52
2022-12-04T04:49:21.353Z,0.57
2022-12-04T04:51:49.488Z,0.56
2022-12-04T04:54:18.286Z,0.50
2022-12-04T04:56:48.124Z,0.52
2022-12-04T04:59:16.341Z,0.53
2022-12-04T05:01:46.554Z,0.47
2022-12-04T05:04:16.119Z,0.47
2022-12-04T05:06:44.067Z,0.50
2022-12-04T05:09:11.880Z,0.46
2022-12-04T05:11:39.836Z,0.34
2022-12-04T05:14:09.533Z,0.34
2022-12-04T05:16:37.652Z,0.30
2022-12-04T05:19:23.213Z,0.27
2022-12-04T05:21:52.467Z,0.21
2022-12-04T05:24:20.326Z,0.10
2022-12-04T05:26:48.322Z,0.01
2022-12-04T05:29:16.223Z,-0.06
2022-12-04T05:31:44.279Z,-0.16
2022-12-04T05:34:12.231Z,-0.24
2022-12-04T05:36:40.119Z,-0.21
2022-12-04T05:39:09.639Z,-0.23
2022-12-04T05:41:37.473Z,-0.24
2022-12-04T05:44:05.351Z,-0.12
2022-12-04T05:46:33.225Z,-0.09
2022-12-04T05:49:01.114Z,-0.02
2022-12-04T05:51:29.035Z,0.09
2022-12-04T05:53:56.878Z,0.20
2022-12-04T05:56:37.639Z,0.11
2022-12-04T05:59:09.011Z,-0.01
2022-12-04T06:01:37.700Z,0.05
2022-12-04T06:04:05.830Z,-0.04
2022-12-04T06:06:33.920Z,-0.05
2022-12-04T06:09:02.057Z,-0.06
2022-12-04T06:11:33.025Z,-0.02
2022-12-04T06:14:02.011Z,0.14
2022-12-04T06:16:31.418Z,0.21
2022-12-04T06:19:00.397Z,0.25
2022-12-04T06:21:30.656Z,0.19
2022-12-04T06:23:59.116Z,0.21
2022-12-04T06:26:27.545Z,0.26
2022-12-04T06:28:58.221Z,0.32
2022-12-04T06:31:27.393Z,0.33
2022-12-04T06:33:56.073Z,0.37
2022-12-04T06:36:24.731Z,0.39
2022-12-04T06:38:53.393Z,0.46
2022-12-04T06:41:22.102Z,0.51
2022-12-04T06:43:51.688Z,0.43
2022-12-04T06:46:22.706Z,0.38
2022-12-04T06:48:51.060Z,0.46
2022-12-04T06:51:21.011Z,0.56
2022-12-04T06:53:49.369Z,0.50
2022-12-04T06:56:18.928Z,0.49
2022-12-04T06:58:47.016Z,0.46
2022-12-04T07:01:17.643Z,0.49
2022-12-04T07:03:51.285Z,0.55
2022-12-04T07:06:21.592Z,0.54
2022-12-04T07:08:51.924Z,0.59
2022-12-04T07:11:21.353Z,0.59
2022-12-04T07:13:49.425Z,0.53
2022-12-04T07:16:19.728Z,0.65
2022-12-04T07:18:50.310Z,0.63
2022-12-04T07:21:20.711Z,0.75
2022-12-04T07:23:50.244Z,0.70
2022-12-04T07:26:18.305Z,0.79
2022-12-04T07:28:46.369Z,0.80
2022-12-04T07:31:16.115Z,0.72
2022-12-04T07:33:44.346Z,0.71
2022-12-04T07:36:15.988Z,0.76
2022-12-04T07:38:44.139Z,0.75
2022-12-04T07:41:13.262Z,0.83
2022-12-04T07:43:41.861Z,0.87
2022-12-04T07:46:11.875Z,0.79
2022-12-04T07:48:40.057Z,0.80
2022-12-04T07:51:10.041Z,0.90
2022-12-04T07:53:39.807Z,0.99
2022-12-04T07:56:08.884Z,1.04
2022-12-04T07:58:37.169Z,1.11
2022-12-04T08:01:09.700Z,1.02
2022-12-04T08:03:42.119Z,1.16
2022-12-04T08:06:13.251Z,1.03
2022-12-04T08:08:42.548Z,1.13
2022-12-04T08:11:12.118Z,1.20
2022-12-04T08:13:40.140Z,1.19
2022-12-04T08:16:09.840Z,1.21
2022-12-04T08:18:38.005Z,1.30
2022-12-04T08:21:07.155Z,1.33
2022-12-04T08:23:35.570Z,1.31
2022-12-04T08:26:06.164Z,1.61
2022-12-04T08:28:34.754Z,1.53
2022-12-04T08:31:06.709Z,1.58
2022-12-04T08:33:35.183Z,1.54
2022-12-04T08:36:03.444Z,1.59
2022-12-04T08:38:31.333Z,1.58
2022-12-04T08:41:01.260Z,1.80
2022-12-04T08:43:30.983Z,1.76
2022-12-04T08:45:59.660Z,1.79
2022-12-04T08:48:28.050Z,1.80
2022-12-04T08:50:56.644Z,1.80
2022-12-04T08:53:24.873Z,1.91
2022-12-04T08:55:53.376Z,1.86
2022-12-04T08:58:21.396Z,1.87
2022-12-04T09:00:50.775Z,2.01
2022-12-04T09:03:21.707Z,1.98
2022-12-04T09:05:51.507Z,2.00
2022-12-04T09:08:19.468Z,2.01
2022-12-04T09:10:47.412Z,2.08
2022-12-04T09:13:15.305Z,2.09
2022-12-04T09:15:43.329Z,2.07
2022-12-04T09:18:12.648Z,2.12
2022-12-04T09:20:40.566Z,2.19
2022-12-04T09:23:08.771Z,2.21
2022-12-04T09:25:37.496Z,2.27
2022-12-04T09:28:05.685Z,2.28
2022-12-04T09:30:33.539Z,2.38
2022-12-04T09:33:01.460Z,2.38
2022-12-04T09:35:31.021Z,2.50
2022-12-04T09:37:59.297Z,2.44
2022-12-04T09:40:36.909Z,2.36
2022-12-04T09:43:20.853Z,2.57
2022-12-04T09:45:55.225Z,2.47
2022-12-04T09:48:34.117Z,2.63
2022-12-04T09:51:04.845Z,2.55
2022-12-04T09:53:41.421Z,2.75
2022-12-04T09:56:12.868Z,2.64
2022-12-04T09:58:43.951Z,2.78
2022-12-04T10:01:21.064Z,2.85
2022-12-04T10:03:49.198Z,2.84
2022-12-04T10:06:21.296Z,2.85
2022-12-04T10:08:52.776Z,2.87
2022-12-04T10:11:32.334Z,2.99
2022-12-04T10:14:10.986Z,2.98
2022-12-04T10:17:03.542Z,2.99
2022-12-04T10:19:36.577Z,3.00
2022-12-04T10:22:08.057Z,3.08
2022-12-04T10:24:43.284Z,3.15
2022-12-04T10:27:19.826Z,3.13
2022-12-04T10:29:50.522Z,3.18
2022-12-04T10:32:21.403Z,3.14
2022-12-04T10:34:51.993Z,3.20
2022-12-04T10:37:21.393Z,3.34
2022-12-04T10:39:53.459Z,3.26
2022-12-04T10:42:37.849Z,3.26
2022-12-04T10:45:07.236Z,3.38
2022-12-04T10:47:35.947Z,3.44
2022-12-04T10:50:13.223Z,3.39
2022-12-04T10:52:42.517Z,3.44
2022-12-04T10:55:10.988Z,3.59
2022-12-04T10:57:40.784Z,3.66
2022-12-04T11:00:28.153Z,3.67
2022-12-04T11:02:57.714Z,3.68
2022-12-04T11:05:29.083Z,3.74
2022-12-04T11:08:00.285Z,3.68
2022-12-04T11:10:33.849Z,3.90
2022-12-04T11:13:03.220Z,3.88
2022-12-04T11:15:31.511Z,3.92
2022-12-04T11:18:08.997Z,3.89
2022-12-04T11:20:37.047Z,3.92
2022-12-04T11:23:06.483Z,3.96
2022-12-04T11:25:37.984Z,3.95
2022-12-04T11:28:06.279Z,4.00
2022-12-04T11:30:36.508Z,4.06
2022-12-04T11:33:06.813Z,4.01
2022-12-04T11:35:35.172Z,4.10
2022-12-04T11:38:08.915Z,4.25
2022-12-04T11:40:37.371Z,4.19
2022-12-04T11:43:07.113Z,4.14
2022-12-04T11:45:35.276Z,4.17
2022-12-04T11:48:04.945Z,4.27
2022-12-04T11:50:39.631Z,4.28
2022-12-04T11:53:17.183Z,4.32
2022-12-04T11:55:54.176Z,4.30
2022-12-04T11:58:33.124Z,4.34
2022-12-04T12:01:13.932Z,4.34
2022-12-04T12:03:45.468Z,4.41
2022-12-04T12:06:21.228Z,4.40
2022-12-04T12:09:03.014Z,4.32
2022-12-04T12:11:34.221Z,4.34
2022-12-04T12:14:08.571Z,4.33
2022-12-04T12:16:49.942Z,4.41
2022-12-04T12:19:37.946Z,4.50
2022-12-04T12:22:12.395Z,4.51
2022-12-04T12:24:49.909Z,4.47
2022-12-04T12:27:30.850Z,4.50
2022-12-04T12:30:04.410Z,4.51
2022-12-04T12:32:52.252Z,4.57
2022-12-04T12:35:23.362Z,4.61
2022-12-04T12:37:53.921Z,4.60
2022-12-04T12:40:29.771Z,4.59
2022-12-04T12:43:01.270Z,4.70
2022-12-04T12:45:36.873Z,4.71
2022-12-04T12:48:09.302Z,4.60
2022-12-04T12:50:44.145Z,4.62
2022-12-04T12:53:16.527Z,4.73
2022-12-04T12:55:47.242Z,4.68
2022-12-04T12:58:19.527Z,4.63
2022-12-04T13:00:52.397Z,4.68
2022-12-04T13:03:27.388Z,4.85
2022-12-04T13:05:58.341Z,4.81
2022-12-04T13:08:29.601Z,4.74
2022-12-04T13:11:04.178Z,4.77
2022-12-04T13:13:34.454Z,4.81
2022-12-04T13:16:07.835Z,4.75
2022-12-04T13:18:40.273Z,4.74
2022-12-04T13:21:09.152Z,4.72
2022-12-04T13:23:50.205Z,4.90
2022-12-04T13:26:28.146Z,4.80
2022-12-04T13:29:01.544Z,4.76
2022-12-04T13:31:34.356Z,4.76
2022-12-04T13:34:21.878Z,4.76
2022-12-04T13:36:59.693Z,4.76
2022-12-04T13:39:51.338Z,4.85
2022-12-04T13:42:24.924Z,4.70
2022-12-04T13:44:55.409Z,4.70
2022-12-04T13:47:33.243Z,4.72
2022-12-04T13:50:10.932Z,4.63
2022-12-04T13:52:40.840Z,4.53
2022-12-04T13:55:25.192Z,4.62
2022-12-04T13:58:00.074Z,4.56
2022-12-04T14:00:31.758Z,4.53
2022-12-04T14:03:02.514Z,4.60
2022-12-04T14:05:33.133Z,4.63
2022-12-04T14:08:07.909Z,4.49
2022-12-04T14:10:38.265Z,4.46
2022-12-04T14:13:16.474Z,4.40
2022-12-04T14:15:44.732Z,4.38
2022-12-04T14:18:20.632Z,4.33
2022-12-04T14:21:01.023Z,4.28
2022-12-04T14:23:35.440Z,4.28
2022-12-04T14:26:05.229Z,4.37
2022-12-04T14:28:44.438Z,4.34
2022-12-04T14:31:27.322Z,4.11
2022-12-04T14:33:58.405Z,4.22
2022-12-04T14:36:28.180Z,4.05
2022-12-04T14:39:13.016Z,4.09
2022-12-04T14:41:40.960Z,4.17
2022-12-04T14:44:23.149Z,4.09
2022-12-04T14:46:52.678Z,4.09
2022-12-04T14:49:31.389Z,4.16
2022-12-04T14:52:05.481Z,4.15
2022-12-04T14:54:38.586Z,4.14
2022-12-04T14:57:18.968Z,4.25
2022-12-04T14:59:49.570Z,4.24
2022-12-04T15:02:19.733Z,4.25
2022-12-04T15:04:48.774Z,4.19
2022-12-04T15:07:21.114Z,4.17
2022-12-04T15:10:10.304Z,4.15
2022-12-04T15:12:44.028Z,4.14
2022-12-04T15:15:21.903Z,4.15
2022-12-04T15:18:00.647Z,4.27
2022-12-04T15:20:33.376Z,4.18
2022-12-04T15:23:05.417Z,4.14
2022-12-04T15:25:37.438Z,4.11
2022-12-04T15:28:09.838Z,4.04
2022-12-04T15:30:40.990Z,3.99
2022-12-04T15:33:19.287Z,4.09
2022-12-04T15:35:52.410Z,4.03
2022-12-04T15:38:20.423Z,4.06
2022-12-04T15:40:53.567Z,4.17
2022-12-04T15:43:27.322Z,4.17
2022-12-04T15:45:56.743Z,4.08
2022-12-04T15:48:29.776Z,3.98
2022-12-04T15:51:01.163Z,4.02
2022-12-04T15:53:32.858Z,4.05
2022-12-04T15:56:03.253Z,3.97
2022-12-04T15:58:32.571Z,3.94
2022-12-04T16:01:03.311Z,4.01
2022-12-04T16:03:32.908Z,3.96
2022-12-04T16:06:09.498Z,3.93
2022-12-04T16:08:39.459Z,3.89
2022-12-04T16:11:08.745Z,3.89
2022-12-04T16:13:38.462Z,3.89
2022-12-04T16:16:11.413Z,3.94
2022-12-04T16:18:39.197Z,3.89
2022-12-04T16:21:07.641Z,3.84
2022-12-04T16:23:35.460Z,3.94
2022-12-04T16:26:03.323Z,3.89
2022-12-04T16:28:31.139Z,3.99
2022-12-04T16:30:59.047Z,4.03
2022-12-04T16:33:28.353Z,3.98
2022-12-04T16:35:56.492Z,3.96
2022-12-04T16:38:24.353Z,3.95
2022-12-04T16:40:52.173Z,3.91
2022-12-04T16:43:20.087Z,3.94
2022-12-04T16:45:49.382Z,3.91
2022-12-04T16:48:17.234Z,3.96
2022-12-04T16:50:47.068Z,4.03
2022-12-04T16:53:17.626Z,4.05
2022-12-04T16:55:46.736Z,4.04
2022-12-04T16:58:15.345Z,3.99
2022-12-04T17:00:44.405Z,4.05
2022-12-04T17:03:18.434Z,3.99
2022-12-04T17:05:47.698Z,4.02
2022-12-04T17:08:15.581Z,4.01
2022-12-04T17:10:43.443Z,4.02
2022-12-04T17:13:11.559Z,4.07
2022-12-04T17:15:39.444Z,4.11
2022-12-04T17:18:11.944Z,4.07
2022-12-04T17:20:41.713Z,4.09
2022-12-04T17:23:12.269Z,4.17
2022-12-04T17:25:40.154Z,4.15
2022-12-04T17:28:08.157Z,4.10
2022-12-04T17:30:36.652Z,4.06
2022-12-04T17:33:05.509Z,4.16
2022-12-04T17:35:33.397Z,4.07
2022-12-04T17:38:05.926Z,4.20
2022-12-04T17:40:35.556Z,4.08
2022-12-04T17:43:03.462Z,4.11
2022-12-04T17:45:31.826Z,4.09
2022-12-04T17:48:00.461Z,4.14
2022-12-04T17:50:28.346Z,4.17
2022-12-04T17:52:56.842Z,4.33
2022-12-04T17:55:24.754Z,4.16
2022-12-04T17:57:53.965Z,4.15
2022-12-04T18:00:21.887Z,4.19
2022-12-04T18:02:53.120Z,4.17
2022-12-04T18:05:21.694Z,4.20
2022-12-04T18:07:49.791Z,4.26
2022-12-04T18:10:18.196Z,4.27
2022-12-04T18:12:46.096Z,4.24
2022-12-04T18:15:15.321Z,4.24
2022-12-04T18:17:43.471Z,4.23
2022-12-04T18:20:11.764Z,4.23
2022-12-04T18:22:39.771Z,4.26
2022-12-04T18:25:09.016Z,4.29
2022-12-04T18:27:41.702Z,4.37
2022-12-04T18:30:12.129Z,4.35
2022-12-04T18:32:41.445Z,4.39
2022-12-04T18:35:11.388Z,4.36
2022-12-04T18:37:40.207Z,4.37
2022-12-04T18:40:09.506Z,4.39
2022-12-04T18:42:38.151Z,4.38
2022-12-04T18:45:07.042Z,4.42
2022-12-04T18:47:36.470Z,4.41
2022-12-04T18:50:09.054Z,4.36
2022-12-04T18:52:38.369Z,4.43
2022-12-04T18:55:06.498Z,4.45
2022-12-04T18:57:34.337Z,4.39
2022-12-04T19:00:02.369Z,4.45
2022-12-04T19:02:30.471Z,4.45
2022-12-04T19:04:58.369Z,4.44
2022-12-04T19:07:27.551Z,4.41
2022-12-04T19:10:10.901Z,4.41
2022-12-04T19:12:39.177Z,4.47
2022-12-04T19:15:08.080Z,4.48
2022-12-04T19:17:35.958Z,4.50
2022-12-04T19:20:03.853Z,4.58
2022-12-04T19:22:33.060Z,4.50
2022-12-04T19:25:01.173Z,4.50
2022-12-04T19:27:28.987Z,4.61
2022-12-04T19:29:57.093Z,4.57
2022-12-04T19:32:25.397Z,4.63
2022-12-04T19:34:53.320Z,4.47
2022-12-04T19:37:21.223Z,4.52
2022-12-04T19:39:50.445Z,4.45
2022-12-04T19:42:18.302Z,4.54
2022-12-04T19:44:48.719Z,4.45
2022-12-04T19:47:17.177Z,4.39
2022-12-04T19:49:45.037Z,4.38
2022-12-04T19:52:13.003Z,4.37
2022-12-04T19:54:41.074Z,4.37
2022-12-04T19:57:10.372Z,4.46
2022-12-04T19:59:41.844Z,4.51
2022-12-04T20:02:12.945Z,4.54
2022-12-04T20:04:40.862Z,4.54
2022-12-04T20:07:08.681Z,4.44
2022-12-04T20:09:36.602Z,4.35
2022-12-04T20:12:04.957Z,4.43
2022-12-04T20:14:34.250Z,4.39
2022-12-04T20:17:04.067Z,4.36
2022-12-04T20:19:32.274Z,4.39
2022-12-04T20:22:00.097Z,4.34
2022-12-04T20:24:28.625Z,4.37
2022-12-04T20:26:56.529Z,4.37
2022-12-04T20:29:24.327Z,4.29
2022-12-04T20:31:53.734Z,4.29
2022-12-04T20:34:21.605Z,4.27
2022-12-04T20:36:50.015Z,4.38
2022-12-04T20:39:19.516Z,4.39
2022-12-04T20:41:47.909Z,4.30
2022-12-04T20:44:17.635Z,4.33
2022-12-04T20:46:45.857Z,4.36
2022-12-04T20:49:21.674Z,4.39
2022-12-04T20:51:51.488Z,4.37
2022-12-04T20:54:20.705Z,4.38
2022-12-04T20:56:49.406Z,4.40
2022-12-04T20:59:18.577Z,4.39
2022-12-04T21:01:46.767Z,4.34
2022-12-04T21:04:17.784Z,4.30
2022-12-04T21:06:46.645Z,4.35
2022-12-04T21:09:16.409Z,4.38
2022-12-04T21:11:45.821Z,4.34
2022-12-04T21:14:33.131Z,4.38
2022-12-04T21:17:01.747Z,4.30
2022-12-04T21:19:32.114Z,4.31
2022-12-04T21:22:00.273Z,4.29
2022-12-04T21:24:28.739Z,4.34
2022-12-04T21:26:56.953Z,4.38
2022-12-04T21:29:25.183Z,4.34
2022-12-04T21:31:53.067Z,4.26
2022-12-04T21:34:20.985Z,4.26
2022-12-04T21:36:50.279Z,4.32
2022-12-04T21:39:18.241Z,4.31
2022-12-04T21:42:03.933Z,4.30
2022-12-04T21:44:31.915Z,4.23
2022-12-04T21:46:59.781Z,4.30
2022-12-04T21:49:28.015Z,4.27
2022-12-04T21:51:58.678Z,4.29
2022-12-04T21:54:27.359Z,4.36
2022-12-04T21:56:55.562Z,4.37
2022-12-04T21:59:23.724Z,4.29
2022-12-04T22:01:51.968Z,4.40
2022-12-04T22:04:19.994Z,4.39
2022-12-04T22:06:47.946Z,4.33
2022-12-04T22:09:17.635Z,4.34
2022-12-04T22:11:45.935Z,4.38
2022-12-04T22:14:14.539Z,4.36
2022-12-04T22:16:43.368Z,4.41
2022-12-04T22:19:11.852Z,4.35
2022-12-04T22:21:40.511Z,4.35
2022-12-04T22:24:10.357Z,4.37
2022-12-04T22:26:40.106Z,4.34
2022-12-04T22:29:34.031Z,4.34
2022-12-04T22:31:56.033Z,4.29
2022-12-04T22:34:23.976Z,4.40
2022-12-04T22:36:51.910Z,4.37
2022-12-04T22:39:19.757Z,4.41
2022-12-04T22:41:49.132Z,4.33
2022-12-04T22:44:16.999Z,4.39
2022-12-04T22:46:44.817Z,4.32
2022-12-04T22:49:12.785Z,4.41
2022-12-04T22:51:40.660Z,4.41
2022-12-04T22:54:11.616Z,4.32
2022-12-04T22:56:39.562Z,4.35
2022-12-04T22:59:08.766Z,4.44
2022-12-04T23:01:36.691Z,4.41
2022-12-04T23:04:04.774Z,4.37
2022-12-04T23:06:33.964Z,4.35
2022-12-04T23:09:03.384Z,4.34
2022-12-04T23:11:31.315Z,4.41
2022-12-04T23:14:01.021Z,4.40
2022-12-04T23:16:31.344Z,4.46
2022-12-04T23:18:59.983Z,4.56
2022-12-04T23:21:28.505Z,4.65
2022-12-04T23:23:56.868Z,4.48
2022-12-04T23:26:27.882Z,4.63
2022-12-04T23:28:56.315Z,4.56
2022-12-04T23:31:24.273Z,4.55
2022-12-04T23:33:53.554Z,4.58
2022-12-04T23:36:21.855Z,4.60
2022-12-04T23:38:49.931Z,4.56
2022-12-04T23:41:19.577Z,4.46
2022-12-04T23:43:48.503Z,4.50
2022-12-04T23:46:17.888Z,4.42
2022-12-04T23:48:46.355Z,4.42
2022-12-04T23:51:17.020Z,4.50
2022-12-04T23:53:45.707Z,4.44
2022-12-04T23:56:16.608Z,4.42
2022-12-04T23:58:46.091Z,4.53
